createdAt,value
2018-03-19T00:00:30.241Z,-3.75
2018-03-19T00:01:30.270Z,-3.67
2018-03-19T00:02:30.310Z,-3.76
2018-03-19T00:03:30.320Z,-3.72
2018-03-19T00:04:30.349Z,-3.72
2018-03-19T00:05:30.379Z,-3.60
2018-03-19T00:06:30.403Z,-3.79
2018-03-19T00:07:30.432Z,-3.78
2018-03-19T00:08:30.458Z,-3.67
2018-03-19T00:09:30.489Z,-3.76
2018-03-19T00:10:30.511Z,-3.72
2018-03-19T00:11:30.546Z,-3.64
2018-03-19T00:12:30.623Z,-3.62
2018-03-19T00:13:30.595Z,-3.62
2018-03-19T00:14:30.621Z,-3.66
2018-03-19T00:15:30.658Z,-3.67
2018-03-19T00:16:30.679Z,-3.79
2018-03-19T00:17:30.705Z,-3.66
2018-03-19T00:18:30.730Z,-3.66
2018-03-19T00:19:30.775Z,-3.63
2018-03-19T00:20:30.785Z,-3.75
2018-03-19T00:21:30.814Z,-3.63
2018-03-19T00:22:30.843Z,-3.79
2018-03-19T00:23:30.880Z,-3.71
2018-03-19T00:24:30.899Z,-3.82
2018-03-19T00:25:30.923Z,-3.81
2018-03-19T00:26:30.954Z,-3.72
2018-03-19T00:27:30.976Z,-3.76
2018-03-19T00:28:31.006Z,-3.75
2018-03-19T00:29:31.035Z,-3.75
2018-03-19T00:30:31.065Z,-3.79
2018-03-19T00:31:31.087Z,-3.81
2018-03-19T00:32:31.112Z,-3.81
2018-03-19T00:33:31.141Z,-3.91
2018-03-19T00:34:31.167Z,-3.91
2018-03-19T00:35:31.195Z,-3.83
2018-03-19T00:36:31.235Z,-3.78
2018-03-19T00:37:31.252Z,-3.81
2018-03-19T00:38:31.285Z,-3.75
2018-03-19T00:39:31.304Z,-3.79
2018-03-19T00:40:31.336Z,-3.82
2018-03-19T00:41:31.360Z,-3.79
2018-03-19T00:42:31.384Z,-3.79
2018-03-19T00:43:31.412Z,-3.78
2018-03-19T00:44:31.441Z,-3.76
2018-03-19T00:45:31.471Z,-3.78
2018-03-19T00:46:31.495Z,-3.82
2018-03-19T00:47:31.522Z,-3.69
2018-03-19T00:48:31.630Z,-3.75
2018-03-19T00:49:31.579Z,-3.79
2018-03-19T00:50:31.602Z,-3.69
2018-03-19T00:51:31.633Z,-3.67
2018-03-19T00:52:31.658Z,-3.64
2018-03-19T00:53:31.686Z,-3.67
2018-03-19T00:54:31.714Z,-3.75
2018-03-19T00:55:31.743Z,-3.79
2018-03-19T00:56:31.773Z,-3.64
2018-03-19T00:57:31.797Z,-3.67
2018-03-19T00:58:31.823Z,-3.79
2018-03-19T00:59:31.849Z,-3.76
2018-03-19T01:00:31.878Z,-3.72
2018-03-19T01:01:31.905Z,-3.69
2018-03-19T01:02:31.935Z,-3.82
2018-03-19T01:03:31.960Z,-3.63
2018-03-19T01:04:31.995Z,-3.75
2018-03-19T01:05:32.061Z,-3.69
2018-03-19T01:06:32.044Z,-3.67
2018-03-19T01:07:32.075Z,-3.79
2018-03-19T01:08:32.114Z,-3.76
2018-03-19T01:09:32.125Z,-3.66
2018-03-19T01:10:32.161Z,-3.63
2018-03-19T01:11:32.179Z,-3.67
2018-03-19T01:12:32.207Z,-3.72
2018-03-19T01:13:32.233Z,-3.69
2018-03-19T01:14:32.259Z,-3.75
2018-03-19T01:15:32.288Z,-3.64
2018-03-19T01:16:32.317Z,-3.79
2018-03-19T01:17:32.342Z,-3.71
2018-03-19T01:18:32.371Z,-3.79
2018-03-19T01:19:32.396Z,-3.76
2018-03-19T01:20:32.426Z,-3.71
2018-03-19T01:21:32.452Z,-3.76
2018-03-19T01:22:32.512Z,-3.75
2018-03-19T01:23:32.506Z,-3.79
2018-03-19T01:24:32.537Z,-3.66
2018-03-19T01:25:32.564Z,-3.76
2018-03-19T01:26:32.587Z,-3.66
2018-03-19T01:27:32.617Z,-3.79
2018-03-19T01:28:32.652Z,-3.69
2018-03-19T01:29:32.671Z,-3.64
2018-03-19T01:30:32.700Z,-3.71
2018-03-19T01:31:32.725Z,-3.64
2018-03-19T01:32:32.753Z,-3.59
2018-03-19T01:33:32.778Z,-3.59
2018-03-19T01:34:32.860Z,-3.60
2018-03-19T01:35:32.839Z,-3.60
2018-03-19T01:36:32.861Z,-3.63
2018-03-19T01:37:32.888Z,-3.78
2018-03-19T01:38:32.919Z,-3.76
2018-03-19T01:39:32.944Z,-3.76
2018-03-19T01:40:32.971Z,-3.67
2018-03-19T01:41:33.014Z,-3.67
2018-03-19T01:42:33.024Z,-3.64
2018-03-19T01:43:33.052Z,-3.79
2018-03-19T01:44:33.079Z,-3.75
2018-03-19T01:45:33.109Z,-3.79
2018-03-19T01:46:33.134Z,-3.76
2018-03-19T01:47:33.167Z,-3.75
2018-03-19T01:48:33.189Z,-3.76
2018-03-19T01:49:33.228Z,-3.78
2018-03-19T01:50:33.263Z,-3.78
2018-03-19T01:51:33.273Z,-3.76
2018-03-19T01:52:33.300Z,-3.82
2018-03-19T01:53:33.330Z,-3.91
2018-03-19T01:54:33.352Z,-3.76
2018-03-19T01:55:33.383Z,-3.93
2018-03-19T01:56:33.413Z,-3.81
2018-03-19T01:57:33.435Z,-3.81
2018-03-19T01:58:33.545Z,-3.90
2018-03-19T01:59:33.490Z,-3.94
2018-03-19T02:00:33.521Z,-3.78
2018-03-19T02:01:33.546Z,-3.82
2018-03-19T02:02:33.584Z,-3.79
2018-03-19T02:03:33.601Z,-3.86
2018-03-19T02:04:33.630Z,-3.83
2018-03-19T02:05:33.653Z,-3.79
2018-03-19T02:06:33.685Z,-3.83
2018-03-19T02:07:33.710Z,-3.88
2018-03-19T02:08:33.741Z,-3.82
2018-03-19T02:09:33.763Z,-3.76
2018-03-19T02:10:33.796Z,-3.81
2018-03-19T02:11:33.819Z,-3.75
2018-03-19T02:12:33.846Z,-3.82
2018-03-19T02:13:33.873Z,-3.81
2018-03-19T02:14:33.903Z,-3.82
2018-03-19T02:15:33.937Z,-3.85
2018-03-19T02:16:33.957Z,-3.76
2018-03-19T02:17:33.983Z,-3.82
2018-03-19T02:18:34.028Z,-3.79
2018-03-19T02:19:34.035Z,-3.83
2018-03-19T02:20:34.063Z,-3.86
2018-03-19T02:21:34.093Z,-3.79
2018-03-19T02:22:34.119Z,-3.91
2018-03-19T02:23:34.146Z,-3.79
2018-03-19T02:24:34.174Z,-3.88
2018-03-19T02:25:34.204Z,-3.93
2018-03-19T02:26:34.233Z,-3.90
2018-03-19T02:27:34.259Z,-3.93
2018-03-19T02:28:34.283Z,-3.94
2018-03-19T02:29:34.311Z,-3.91
2018-03-19T02:30:34.337Z,-3.94
2018-03-19T02:31:34.372Z,-3.90
2018-03-19T02:32:34.394Z,-3.97
2018-03-19T02:33:34.420Z,-3.99
2018-03-19T02:34:34.445Z,-3.99
2018-03-19T02:35:34.475Z,-4.12
2018-03-19T02:36:34.499Z,-4.06
2018-03-19T02:37:34.589Z,-4.10
2018-03-19T02:38:34.555Z,-4.17
2018-03-19T02:39:34.585Z,-4.11
2018-03-19T02:40:34.621Z,-4.18
2018-03-19T02:41:34.638Z,-4.20
2018-03-19T02:42:34.664Z,-4.18
2018-03-19T02:43:34.689Z,-4.15
2018-03-19T02:44:34.741Z,-4.15
2018-03-19T02:45:34.768Z,-4.29
2018-03-19T02:46:34.771Z,-4.18
2018-03-19T02:47:34.800Z,-4.28
2018-03-19T02:48:34.827Z,-4.36
2018-03-19T02:49:34.854Z,-4.36
2018-03-19T02:50:34.880Z,-4.35
2018-03-19T02:51:34.907Z,-4.28
2018-03-19T02:52:34.936Z,-4.35
2018-03-19T02:53:34.964Z,-4.33
2018-03-19T02:54:34.996Z,-4.30
2018-03-19T02:55:35.016Z,-4.36
2018-03-19T02:56:35.046Z,-4.33
2018-03-19T02:57:35.072Z,-4.29
2018-03-19T02:58:35.099Z,-4.35
2018-03-19T02:59:35.131Z,-4.38
2018-03-19T03:00:35.158Z,-4.39
2018-03-19T03:01:35.221Z,-4.39
2018-03-19T03:02:35.207Z,-4.40
2018-03-19T03:03:35.237Z,-4.50
2018-03-19T03:04:35.262Z,-4.43
2018-03-19T03:05:35.289Z,-4.53
2018-03-19T03:06:35.319Z,-4.54
2018-03-19T03:07:35.344Z,-4.56
2018-03-19T03:08:35.368Z,-4.53
2018-03-19T03:09:35.397Z,-4.56
2018-03-19T03:10:35.428Z,-4.43
2018-03-19T03:11:35.457Z,-4.56
2018-03-19T03:12:35.480Z,-4.54
2018-03-19T03:13:35.509Z,-4.53
2018-03-19T03:14:35.538Z,-4.56
2018-03-19T03:15:35.561Z,-4.56
2018-03-19T03:16:35.589Z,-4.60
2018-03-19T03:17:35.618Z,-4.54
2018-03-19T03:18:35.641Z,-4.53
2018-03-19T03:19:35.672Z,-4.51
2018-03-19T03:20:35.695Z,-4.61
2018-03-19T03:21:35.724Z,-4.68
2018-03-19T03:22:35.752Z,-4.56
2018-03-19T03:23:35.790Z,-4.65
2018-03-19T03:24:35.804Z,-4.61
2018-03-19T03:25:35.833Z,-4.68
2018-03-19T03:26:35.859Z,-4.69
2018-03-19T03:27:35.884Z,-4.71
2018-03-19T03:28:35.911Z,-4.71
2018-03-19T03:29:35.941Z,-4.68
2018-03-19T03:30:35.972Z,-4.67
2018-03-19T03:31:35.995Z,-4.63
2018-03-19T03:32:36.021Z,-4.61
2018-03-19T03:33:36.048Z,-4.68
2018-03-19T03:34:36.076Z,-4.67
2018-03-19T03:35:36.102Z,-4.67
2018-03-19T03:36:36.129Z,-4.72
2018-03-19T03:37:36.159Z,-4.69
2018-03-19T03:38:36.182Z,-4.71
2018-03-19T03:39:36.209Z,-4.63
2018-03-19T03:40:36.340Z,-4.61
2018-03-19T03:41:36.269Z,-4.60
2018-03-19T03:42:36.290Z,-4.69
2018-03-19T03:43:36.321Z,-4.69
2018-03-19T03:44:36.346Z,-4.72
2018-03-19T03:45:36.373Z,-4.75
2018-03-19T03:46:36.415Z,-4.72
2018-03-19T03:47:36.442Z,-4.71
2018-03-19T03:48:36.470Z,-4.68
2018-03-19T03:49:36.482Z,-4.81
2018-03-19T03:50:36.505Z,-4.77
2018-03-19T03:51:36.537Z,-4.81
2018-03-19T03:52:36.562Z,-4.81
2018-03-19T03:53:36.593Z,-4.79
2018-03-19T03:54:36.618Z,-4.78
2018-03-19T03:55:36.691Z,-4.79
2018-03-19T03:56:36.673Z,-4.79
2018-03-19T03:57:36.728Z,-4.85
2018-03-19T03:58:36.721Z,-4.71
2018-03-19T03:59:36.797Z,-4.92
2018-03-19T04:00:36.778Z,-4.86
2018-03-19T04:01:36.806Z,-4.87
2018-03-19T04:02:36.833Z,-4.86
2018-03-19T04:03:36.858Z,-4.86
2018-03-19T04:04:36.884Z,-4.85
2018-03-19T04:05:36.913Z,-4.87
2018-03-19T04:06:36.942Z,-4.93
2018-03-19T04:07:36.964Z,-4.92
2018-03-19T04:08:36.993Z,-5.06
2018-03-19T04:09:37.073Z,-5.10
2018-03-19T04:10:37.047Z,-4.99
2018-03-19T04:11:37.092Z,-5.07
2018-03-19T04:12:37.103Z,-4.95
2018-03-19T04:13:37.130Z,-5.04
2018-03-19T04:14:37.161Z,-4.99
2018-03-19T04:15:37.181Z,-5.07
2018-03-19T04:16:37.293Z,-5.10
2018-03-19T04:17:37.238Z,-5.11
2018-03-19T04:18:37.263Z,-5.04
2018-03-19T04:19:37.290Z,-5.04
2018-03-19T04:20:37.316Z,-5.08
2018-03-19T04:21:37.349Z,-5.11
2018-03-19T04:22:37.372Z,-5.11
2018-03-19T04:23:37.400Z,-5.00
2018-03-19T04:24:37.427Z,-5.17
2018-03-19T04:25:37.457Z,-5.14
2018-03-19T04:26:37.501Z,-5.19
2018-03-19T04:27:37.507Z,-5.10
2018-03-19T04:28:37.536Z,-5.19
2018-03-19T04:29:37.560Z,-5.18
2018-03-19T04:30:37.585Z,-5.17
2018-03-19T04:31:37.670Z,-5.27
2018-03-19T04:32:37.642Z,-5.25
2018-03-19T04:33:37.692Z,-5.32
2018-03-19T04:34:37.693Z,-5.29
2018-03-19T04:35:37.718Z,-5.30
2018-03-19T04:36:37.747Z,-5.25
2018-03-19T04:37:37.798Z,-5.30
2018-03-19T04:38:37.800Z,-5.27
2018-03-19T04:39:37.828Z,-5.30
2018-03-19T04:40:37.859Z,-5.27
2018-03-19T04:41:37.881Z,-5.37
2018-03-19T04:42:37.907Z,-5.32
2018-03-19T04:43:37.979Z,-5.35
2018-03-19T04:44:37.972Z,-5.41
2018-03-19T04:45:37.991Z,-5.37
2018-03-19T04:46:38.018Z,-5.41
2018-03-19T04:47:38.042Z,-5.43
2018-03-19T04:48:38.074Z,-5.44
2018-03-19T04:49:38.100Z,-5.46
2018-03-19T04:50:38.122Z,-5.44
2018-03-19T04:51:38.151Z,-5.43
2018-03-19T04:52:38.178Z,-5.46
2018-03-19T04:53:38.208Z,-5.43
2018-03-19T04:54:38.230Z,-5.46
2018-03-19T04:55:38.360Z,-5.57
2018-03-19T04:56:38.290Z,-5.57
2018-03-19T04:57:38.320Z,-5.54
2018-03-19T04:58:38.338Z,-5.54
2018-03-19T04:59:38.363Z,-5.53
2018-03-19T05:00:38.390Z,-5.53
2018-03-19T05:01:38.419Z,-5.55
2018-03-19T05:02:38.443Z,-5.59
2018-03-19T05:03:38.473Z,-5.55
2018-03-19T05:04:38.500Z,-5.55
2018-03-19T05:05:38.580Z,-5.57
2018-03-19T05:06:38.553Z,-5.50
2018-03-19T05:07:38.579Z,-5.48
2018-03-19T05:08:38.609Z,-5.48
2018-03-19T05:09:38.631Z,-5.51
2018-03-19T05:10:38.659Z,-5.50
2018-03-19T05:11:38.689Z,-5.51
2018-03-19T05:12:38.824Z,-5.61
2018-03-19T05:13:38.739Z,-5.47
2018-03-19T05:14:38.770Z,-5.53
2018-03-19T05:15:38.841Z,-5.50
2018-03-19T05:16:38.834Z,-5.53
2018-03-19T05:17:38.900Z,-5.50
2018-03-19T05:18:38.873Z,-5.48
2018-03-19T05:19:38.902Z,-5.48
2018-03-19T05:20:38.926Z,-5.57
2018-03-19T05:21:38.956Z,-5.51
2018-03-19T05:22:38.983Z,-5.43
2018-03-19T05:23:39.006Z,-5.33
2018-03-19T05:24:39.038Z,-5.54
2018-03-19T05:25:39.073Z,-5.46
2018-03-19T05:26:39.087Z,-5.50
2018-03-19T05:27:39.115Z,-5.53
2018-03-19T05:28:39.141Z,-5.53
2018-03-19T05:29:39.247Z,-5.57
2018-03-19T05:30:39.200Z,-5.61
2018-03-19T05:31:39.221Z,-5.48
2018-03-19T05:32:39.246Z,-5.47
2018-03-19T05:33:39.275Z,-5.48
2018-03-19T05:34:39.303Z,-5.54
2018-03-19T05:35:39.327Z,-5.55
2018-03-19T05:36:39.356Z,-5.51
2018-03-19T05:37:39.382Z,-5.47
2018-03-19T05:38:39.414Z,-5.50
2018-03-19T05:39:39.436Z,-5.44
2018-03-19T05:40:39.463Z,-5.46
2018-03-19T05:41:39.599Z,-5.44
2018-03-19T05:42:39.515Z,-5.41
2018-03-19T05:43:39.544Z,-5.35
2018-03-19T05:44:39.568Z,-5.36
2018-03-19T05:45:39.596Z,-5.39
2018-03-19T05:46:39.621Z,-5.36
2018-03-19T05:47:39.648Z,-5.39
2018-03-19T05:48:39.679Z,-5.39
2018-03-19T05:49:39.705Z,-5.26
2018-03-19T05:50:39.740Z,-5.35
2018-03-19T05:51:39.812Z,-5.32
2018-03-19T05:52:39.784Z,-5.37
2018-03-19T05:53:39.822Z,-5.27
2018-03-19T05:54:39.837Z,-5.18
2018-03-19T05:55:39.864Z,-5.18
2018-03-19T05:56:39.938Z,-5.14
2018-03-19T05:57:39.925Z,-5.19
2018-03-19T05:58:40.019Z,-5.11
2018-03-19T05:59:39.975Z,-5.11
2018-03-19T06:00:39.996Z,-5.10
2018-03-19T06:01:40.035Z,-5.06
2018-03-19T06:02:40.086Z,-5.08
2018-03-19T06:03:40.077Z,-5.06
2018-03-19T06:04:40.106Z,-5.11
2018-03-19T06:05:40.135Z,-5.13
2018-03-19T06:06:40.160Z,-5.13
2018-03-19T06:07:40.186Z,-5.08
2018-03-19T06:08:40.217Z,-5.07
2018-03-19T06:09:40.238Z,-5.08
2018-03-19T06:10:40.267Z,-5.04
2018-03-19T06:11:40.291Z,-5.06
2018-03-19T06:12:40.319Z,-5.00
2018-03-19T06:13:40.346Z,-4.90
2018-03-19T06:14:40.372Z,-4.86
2018-03-19T06:15:40.457Z,-4.96
2018-03-19T06:16:40.426Z,-4.89
2018-03-19T06:17:40.458Z,-4.89
2018-03-19T06:18:40.483Z,-4.78
2018-03-19T06:19:40.507Z,-4.95
2018-03-19T06:20:40.537Z,-4.85
2018-03-19T06:21:40.560Z,-4.87
2018-03-19T06:22:40.605Z,-4.86
2018-03-19T06:23:40.617Z,-4.86
2018-03-19T06:24:40.641Z,-4.86
2018-03-19T06:25:40.673Z,-4.81
2018-03-19T06:26:40.707Z,-4.79
2018-03-19T06:27:40.719Z,-4.75
2018-03-19T06:28:40.746Z,-4.78
2018-03-19T06:29:40.778Z,-4.69
2018-03-19T06:30:40.803Z,-4.83
2018-03-19T06:31:40.833Z,-4.81
2018-03-19T06:32:40.858Z,-4.72
2018-03-19T06:33:40.882Z,-4.81
2018-03-19T06:34:40.907Z,-4.68
2018-03-19T06:35:40.939Z,-4.71
2018-03-19T06:36:40.962Z,-4.71
2018-03-19T06:37:40.990Z,-4.69
2018-03-19T06:38:41.020Z,-4.68
2018-03-19T06:39:41.043Z,-4.77
2018-03-19T06:40:41.070Z,-4.61
2018-03-19T06:41:41.098Z,-4.65
2018-03-19T06:42:41.124Z,-4.68
2018-03-19T06:43:41.152Z,-4.61
2018-03-19T06:44:41.223Z,-4.72
2018-03-19T06:45:41.209Z,-4.61
2018-03-19T06:46:41.238Z,-4.60
2018-03-19T06:47:41.259Z,-4.72
2018-03-19T06:48:41.290Z,-4.68
2018-03-19T06:49:41.316Z,-4.71
2018-03-19T06:50:41.342Z,-4.65
2018-03-19T06:51:41.369Z,-4.61
2018-03-19T06:52:41.399Z,-4.65
2018-03-19T06:53:41.425Z,-4.67
2018-03-19T06:54:41.452Z,-4.72
2018-03-19T06:55:41.475Z,-4.61
2018-03-19T06:56:41.504Z,-4.56
2018-03-19T06:57:41.533Z,-4.58
2018-03-19T06:58:41.562Z,-4.67
2018-03-19T06:59:41.602Z,-4.67
2018-03-19T07:00:41.614Z,-4.63
2018-03-19T07:01:41.747Z,-4.65
2018-03-19T07:02:41.666Z,-4.57
2018-03-19T07:03:41.692Z,-4.68
2018-03-19T07:04:41.721Z,-4.67
2018-03-19T07:05:41.747Z,-4.65
2018-03-19T07:06:41.773Z,-4.54
2018-03-19T07:07:41.815Z,-4.58
2018-03-19T07:08:41.827Z,-4.54
2018-03-19T07:09:41.855Z,-4.54
2018-03-19T07:10:41.885Z,-4.53
2018-03-19T07:11:41.911Z,-4.50
2018-03-19T07:12:41.941Z,-4.49
2018-03-19T07:13:41.961Z,-4.47
2018-03-19T07:14:42.007Z,-4.56
2018-03-19T07:15:42.017Z,-4.46
2018-03-19T07:16:42.046Z,-4.40
2018-03-19T07:17:42.075Z,-4.57
2018-03-19T07:18:42.114Z,-4.39
2018-03-19T07:19:42.126Z,-4.40
2018-03-19T07:20:42.154Z,-4.54
2018-03-19T07:21:42.185Z,-4.53
2018-03-19T07:22:42.219Z,-4.39
2018-03-19T07:23:42.232Z,-4.42
2018-03-19T07:24:42.261Z,-4.42
2018-03-19T07:25:42.288Z,-4.38
2018-03-19T07:26:42.316Z,-4.39
2018-03-19T07:27:42.343Z,-4.36
2018-03-19T07:28:42.428Z,-4.30
2018-03-19T07:29:42.399Z,-4.40
2018-03-19T07:30:42.439Z,-4.29
2018-03-19T07:31:42.454Z,-4.29
2018-03-19T07:32:42.479Z,-4.28
2018-03-19T07:33:42.504Z,-4.29
2018-03-19T07:34:42.644Z,-4.32
2018-03-19T07:35:42.558Z,-4.39
2018-03-19T07:36:42.590Z,-4.29
2018-03-19T07:37:42.615Z,-4.21
2018-03-19T07:38:42.640Z,-4.21
2018-03-19T07:39:42.667Z,-4.20
2018-03-19T07:40:42.696Z,-4.17
2018-03-19T07:41:42.724Z,-4.17
2018-03-19T07:42:42.748Z,-4.17
2018-03-19T07:43:42.776Z,-4.06
2018-03-19T07:44:42.804Z,-4.04
2018-03-19T07:45:42.830Z,-3.97
2018-03-19T07:46:42.856Z,-3.96
2018-03-19T07:47:42.957Z,-3.88
2018-03-19T07:48:42.914Z,-3.96
2018-03-19T07:49:42.938Z,-3.94
2018-03-19T07:50:42.965Z,-3.88
2018-03-19T07:51:42.996Z,-3.94
2018-03-19T07:52:43.021Z,-3.82
2018-03-19T07:53:43.051Z,-3.79
2018-03-19T07:54:43.074Z,-3.78
2018-03-19T07:55:43.112Z,-3.75
2018-03-19T07:56:43.131Z,-3.69
2018-03-19T07:57:43.156Z,-3.64
2018-03-19T07:58:43.189Z,-3.71
2018-03-19T07:59:43.211Z,-3.76
2018-03-19T08:00:43.236Z,-3.72
2018-03-19T08:01:43.267Z,-3.81
2018-03-19T08:02:43.292Z,-3.91
2018-03-19T08:03:43.319Z,-3.82
2018-03-19T08:04:43.354Z,-3.91
2018-03-19T08:05:43.403Z,-3.83
2018-03-19T08:06:43.402Z,-3.85
2018-03-19T08:07:43.430Z,-3.81
2018-03-19T08:08:43.458Z,-3.88
2018-03-19T08:09:43.481Z,-3.88
2018-03-19T08:10:43.512Z,-3.82
2018-03-19T08:11:43.672Z,-3.78
2018-03-19T08:12:43.568Z,-3.91
2018-03-19T08:13:43.593Z,-3.86
2018-03-19T08:14:43.628Z,-3.79
2018-03-19T08:15:43.649Z,-3.71
2018-03-19T08:16:43.679Z,-3.63
2018-03-19T08:17:43.709Z,-3.66
2018-03-19T08:18:43.732Z,-3.66
2018-03-19T08:19:43.757Z,-3.71
2018-03-19T08:20:43.789Z,-3.67
2018-03-19T08:21:43.814Z,-3.66
2018-03-19T08:22:43.841Z,-3.72
2018-03-19T08:23:43.996Z,-3.76
2018-03-19T08:24:43.893Z,-3.72
2018-03-19T08:25:43.923Z,-3.82
2018-03-19T08:26:43.950Z,-3.79
2018-03-19T08:27:43.976Z,-3.63
2018-03-19T08:28:44.002Z,-3.66
2018-03-19T08:29:44.080Z,-3.59
2018-03-19T08:30:44.061Z,-3.66
2018-03-19T08:31:44.086Z,-3.66
2018-03-19T08:32:44.112Z,-3.62
2018-03-19T08:33:44.158Z,-3.66
2018-03-19T08:34:44.184Z,-3.64
2018-03-19T08:35:44.193Z,-3.76
2018-03-19T08:36:44.228Z,-3.62
2018-03-19T08:37:44.254Z,-3.69
2018-03-19T08:38:44.276Z,-3.57
2018-03-19T08:39:44.309Z,-3.54
2018-03-19T08:40:44.343Z,-3.53
2018-03-19T08:41:44.390Z,-3.56
2018-03-19T08:42:44.437Z,-3.46
2018-03-19T08:43:44.411Z,-3.39
2018-03-19T08:44:44.441Z,-3.35
2018-03-19T08:45:44.467Z,-3.28
2018-03-19T08:46:44.493Z,-3.23
2018-03-19T08:47:44.521Z,-3.21
2018-03-19T08:48:44.553Z,-3.18
2018-03-19T08:49:44.578Z,-3.24
2018-03-19T08:50:44.603Z,-3.18
2018-03-19T08:51:44.634Z,-3.20
2018-03-19T08:52:44.656Z,-3.23
2018-03-19T08:53:44.684Z,-3.12
2018-03-19T08:54:44.712Z,-3.12
2018-03-19T08:55:44.744Z,-3.09
2018-03-19T08:56:44.774Z,-3.14
2018-03-19T08:57:44.795Z,-3.21
2018-03-19T08:58:44.822Z,-3.14
2018-03-19T08:59:44.852Z,-3.02
2018-03-19T09:00:44.880Z,-3.00
2018-03-19T09:01:44.906Z,-3.00
2018-03-19T09:02:44.945Z,-3.02
2018-03-19T09:03:44.959Z,-2.96
2018-03-19T09:04:44.985Z,-3.02
2018-03-19T09:05:45.016Z,-3.00
2018-03-19T09:06:45.043Z,-2.99
2018-03-19T09:07:45.068Z,-3.03
2018-03-19T09:08:45.097Z,-2.91
2018-03-19T09:09:45.138Z,-2.91
2018-03-19T09:10:45.155Z,-2.91
2018-03-19T09:11:45.180Z,-2.86
2018-03-19T09:12:45.205Z,-2.88
2018-03-19T09:13:45.235Z,-2.73
2018-03-19T09:14:45.260Z,-2.74
2018-03-19T09:15:45.289Z,-2.78
2018-03-19T09:16:45.356Z,-2.67
2018-03-19T09:17:45.347Z,-2.60
2018-03-19T09:18:45.369Z,-2.63
2018-03-19T09:19:45.488Z,-2.61
2018-03-19T09:20:45.426Z,-2.48
2018-03-19T09:21:45.455Z,-2.58
2018-03-19T09:22:45.531Z,-2.52
2018-03-19T09:23:45.513Z,-2.48
2018-03-19T09:24:45.535Z,-2.52
2018-03-19T09:25:45.566Z,-2.50
2018-03-19T09:26:45.591Z,-2.40
2018-03-19T09:27:45.619Z,-2.43
2018-03-19T09:28:45.648Z,-2.37
2018-03-19T09:29:45.675Z,-2.43
2018-03-19T09:30:45.700Z,-2.42
2018-03-19T09:31:45.774Z,-2.32
2018-03-19T09:32:45.758Z,-2.37
2018-03-19T09:33:45.785Z,-2.37
2018-03-19T09:34:45.809Z,-2.30
2018-03-19T09:35:45.838Z,-2.15
2018-03-19T09:36:45.919Z,-2.16
2018-03-19T09:37:45.896Z,-2.08
2018-03-19T09:38:45.920Z,-2.12
2018-03-19T09:39:45.949Z,-2.18
2018-03-19T09:40:45.979Z,-2.05
2018-03-19T09:41:46.008Z,-2.10
2018-03-19T09:42:46.031Z,-2.12
2018-03-19T09:43:46.066Z,-2.02
2018-03-19T09:44:46.086Z,-2.06
2018-03-19T09:45:46.118Z,-2.10
2018-03-19T09:46:46.143Z,-2.02
2018-03-19T09:47:46.185Z,-2.00
2018-03-19T09:48:46.197Z,-1.87
2018-03-19T09:49:46.226Z,-1.80
2018-03-19T09:50:46.257Z,-1.77
2018-03-19T09:51:46.295Z,-1.87
2018-03-19T09:52:46.317Z,-1.85
2018-03-19T09:53:46.344Z,-1.74
2018-03-19T09:54:46.368Z,-1.72
2018-03-19T09:55:46.392Z,-1.66
2018-03-19T09:56:46.422Z,-1.59
2018-03-19T09:57:46.455Z,-1.59
2018-03-19T09:58:46.480Z,-1.70
2018-03-19T09:59:46.504Z,-1.58
2018-03-19T10:00:46.535Z,-1.61
2018-03-19T10:01:46.561Z,-1.61
2018-03-19T10:02:46.642Z,-1.62
2018-03-19T10:03:46.619Z,-1.62
2018-03-19T10:04:46.649Z,-1.66
2018-03-19T10:05:46.676Z,-1.51
2018-03-19T10:06:46.700Z,-1.52
2018-03-19T10:07:46.731Z,-1.43
2018-03-19T10:08:46.759Z,-1.30
2018-03-19T10:09:46.785Z,-1.23
2018-03-19T10:10:46.812Z,-1.20
2018-03-19T10:11:46.839Z,-1.22
2018-03-19T10:12:46.953Z,-1.40
2018-03-19T10:13:46.900Z,-1.46
2018-03-19T10:14:46.924Z,-1.41
2018-03-19T10:15:46.958Z,-1.38
2018-03-19T10:16:46.980Z,-1.46
2018-03-19T10:17:47.010Z,-1.45
2018-03-19T10:18:47.035Z,-1.72
2018-03-19T10:19:47.196Z,-1.79
2018-03-19T10:20:47.095Z,-1.73
2018-03-19T10:21:47.122Z,-1.66
2018-03-19T10:22:47.152Z,-1.52
2018-03-19T10:23:47.178Z,-1.55
2018-03-19T10:24:47.215Z,-1.51
2018-03-19T10:25:47.242Z,-1.38
2018-03-19T10:26:47.262Z,-1.40
2018-03-19T10:27:47.290Z,-1.23
2018-03-19T10:28:47.315Z,-1.22
2018-03-19T10:29:47.402Z,-1.17
2018-03-19T10:30:47.372Z,-1.27
2018-03-19T10:31:47.401Z,-1.17
2018-03-19T10:32:47.431Z,-1.13
2018-03-19T10:33:47.462Z,-1.22
2018-03-19T10:34:47.494Z,-1.13
2018-03-19T10:35:47.514Z,-1.15
2018-03-19T10:36:47.555Z,-1.10
2018-03-19T10:37:47.595Z,-1.05
2018-03-19T10:38:47.599Z,-1.04
2018-03-19T10:39:47.626Z,-1.09
2018-03-19T10:40:47.656Z,-0.98
2018-03-19T10:41:47.683Z,-0.95
2018-03-19T10:42:47.712Z,-1.07
2018-03-19T10:43:47.750Z,-1.05
2018-03-19T10:44:47.769Z,-1.10
2018-03-19T10:45:47.848Z,-1.19
2018-03-19T10:46:47.823Z,-0.97
2018-03-19T10:47:47.853Z,-0.98
2018-03-19T10:48:47.878Z,-1.10
2018-03-19T10:49:47.914Z,-1.07
2018-03-19T10:50:47.936Z,-1.04
2018-03-19T10:51:47.964Z,-1.05
2018-03-19T10:52:48.003Z,-1.01
2018-03-19T10:53:48.024Z,-1.15
2018-03-19T10:54:48.101Z,-1.12
2018-03-19T10:55:48.076Z,-1.10
2018-03-19T10:56:48.104Z,-1.02
2018-03-19T10:57:48.135Z,-0.95
2018-03-19T10:58:48.179Z,-0.89
2018-03-19T10:59:48.190Z,-0.82
2018-03-19T11:00:48.225Z,-0.70
2018-03-19T11:01:48.245Z,-0.65
2018-03-19T11:02:48.288Z,-0.67
2018-03-19T11:03:48.306Z,-0.73
2018-03-19T11:04:48.332Z,-0.78
2018-03-19T11:05:48.405Z,-0.83
2018-03-19T11:06:48.386Z,-0.92
2018-03-19T11:07:48.416Z,-0.82
2018-03-19T11:08:48.443Z,-0.70
2018-03-19T11:09:48.470Z,-0.78
2018-03-19T11:10:48.498Z,-0.62
2018-03-19T11:11:48.578Z,-0.69
2018-03-19T11:12:48.556Z,-0.65
2018-03-19T11:13:48.585Z,-0.58
2018-03-19T11:14:48.615Z,-0.62
2018-03-19T11:15:48.642Z,-0.64
2018-03-19T11:16:48.668Z,-0.73
2018-03-19T11:17:48.697Z,-0.67
2018-03-19T11:18:48.727Z,-0.52
2018-03-19T11:19:48.753Z,-0.58
2018-03-19T11:20:48.818Z,-0.54
2018-03-19T11:21:48.808Z,-0.47
2018-03-19T11:22:48.861Z,-0.42
2018-03-19T11:23:48.868Z,-0.46
2018-03-19T11:24:48.897Z,-0.49
2018-03-19T11:25:48.922Z,-0.54
2018-03-19T11:26:48.952Z,-0.57
2018-03-19T11:27:48.981Z,-0.51
2018-03-19T11:28:49.024Z,-0.46
2018-03-19T11:29:49.130Z,-0.47
2018-03-19T11:30:49.064Z,-0.34
2018-03-19T11:31:49.123Z,-0.28
2018-03-19T11:32:49.124Z,-0.25
2018-03-19T11:33:49.195Z,-0.25
2018-03-19T11:34:49.177Z,-0.33
2018-03-19T11:35:49.209Z,-0.22
2018-03-19T11:36:49.235Z,-0.28
2018-03-19T11:37:49.263Z,-0.23
2018-03-19T11:38:49.292Z,-0.15
2018-03-19T11:39:49.341Z,-0.04
2018-03-19T11:40:49.350Z,-0.14
2018-03-19T11:41:49.428Z,-0.05
2018-03-19T11:42:49.403Z,-0.03
2018-03-19T11:43:49.432Z,-0.10
2018-03-19T11:44:49.516Z,-0.04
2018-03-19T11:45:49.489Z,-0.10
2018-03-19T11:46:49.530Z,-0.05
2018-03-19T11:47:49.550Z,-0.16
2018-03-19T11:48:49.576Z,-0.18
2018-03-19T11:49:49.612Z,-0.22
2018-03-19T11:50:49.634Z,-0.21
2018-03-19T11:51:49.662Z,-0.21
2018-03-19T11:52:49.740Z,-0.25
2018-03-19T11:53:49.735Z,-0.25
2018-03-19T11:54:49.746Z,-0.29
2018-03-19T11:55:49.774Z,-0.14
2018-03-19T11:56:49.804Z,-0.25
2018-03-19T11:57:49.831Z,-0.22
2018-03-19T11:58:49.886Z,-0.05
2018-03-19T11:59:49.890Z,0.00
2018-03-19T12:00:49.924Z,-0.01
2018-03-19T12:01:49.947Z,-0.11
2018-03-19T12:02:49.975Z,-0.19
2018-03-19T12:03:50.003Z,-0.08
2018-03-19T12:04:50.087Z,-0.04
2018-03-19T12:05:50.163Z,-0.10
2018-03-19T12:06:50.103Z,-0.01
2018-03-19T12:07:50.116Z,0.07
2018-03-19T12:08:50.144Z,0.08
2018-03-19T12:09:50.173Z,0.18
2018-03-19T12:10:50.203Z,0.15
2018-03-19T12:11:50.228Z,0.20
2018-03-19T12:12:50.261Z,0.18
2018-03-19T12:13:50.288Z,0.29
2018-03-19T12:14:50.316Z,0.35
2018-03-19T12:15:50.362Z,0.33
2018-03-19T12:16:50.372Z,0.35
2018-03-19T12:17:50.403Z,0.32
2018-03-19T12:18:50.444Z,0.32
2018-03-19T12:19:50.458Z,0.32
2018-03-19T12:20:50.487Z,0.33
2018-03-19T12:21:50.513Z,0.29
2018-03-19T12:22:50.660Z,0.31
2018-03-19T12:23:50.572Z,0.32
2018-03-19T12:24:50.601Z,0.31
2018-03-19T12:25:50.630Z,0.29
2018-03-19T12:26:50.726Z,0.32
2018-03-19T12:27:50.688Z,0.28
2018-03-19T12:28:50.714Z,0.32
2018-03-19T12:29:50.744Z,0.49
2018-03-19T12:30:50.771Z,0.35
2018-03-19T12:31:50.800Z,0.39
2018-03-19T12:32:50.833Z,0.44
2018-03-19T12:33:50.856Z,0.32
2018-03-19T12:34:50.884Z,0.42
2018-03-19T12:35:50.919Z,0.38
2018-03-19T12:36:50.946Z,0.51
2018-03-19T12:37:50.977Z,0.41
2018-03-19T12:38:51.006Z,0.32
2018-03-19T12:39:51.037Z,0.33
2018-03-19T12:40:51.061Z,0.33
2018-03-19T12:41:51.086Z,0.39
2018-03-19T12:42:51.118Z,0.33
2018-03-19T12:43:51.146Z,0.33
2018-03-19T12:44:51.172Z,0.26
2018-03-19T12:45:51.222Z,0.47
2018-03-19T12:46:51.231Z,0.49
2018-03-19T12:47:51.256Z,0.53
2018-03-19T12:48:51.289Z,0.58
2018-03-19T12:49:51.318Z,0.57
2018-03-19T12:50:51.358Z,0.62
2018-03-19T12:51:51.477Z,0.72
2018-03-19T12:52:51.402Z,0.69
2018-03-19T12:53:51.428Z,0.58
2018-03-19T12:54:51.460Z,0.62